Accueil
METAR-TAF:

METAR-TAF

Aéroports :

Aéroport international de Bandar Seri Begawan

Brunei, Brunei

latitude: 04-56N, longitude: 114-56E, altitude: 22 m

Observation

Le bulletin a été fait il y a 41 minutes, à 01:00 UTC
Vent 3 kt de est/sud-est
Température 30°C
Humidité 75%
Pression 1012 hPa
Visibilité: 9000 m
Quelques nuages à une hauteur de 1500 ft
Nuages fragmentés à une hauteur de 30000 ft

METAR: WBSB 220100Z 12003KT 9000 FEW015 BKN300 30/25 Q1012 NOSIG

Heure: 09:41 (01:41 UTC)

Prévision

Le bulletin a été fait il y a 2 heures et 51 minutes, à 22:50 UTC
Prévision valable du 22 à 00 UTC au 23 à 06 UTC
Vent 3 kt de ouest/nord-ouest
Visibilité 10 km ou plus
Quelques nuages à une hauteur de 1500 ft
Evoluant progressivement
du 22 à 04 UTC au 22 à 05 UTC
Vent 10 kt de nord/nord-est
Quelques nuages à une hauteur de 1700 ft

TAF: WBSB 212250Z 2200/2306 30003KT 9999 FEW015 BECMG 2204/2205 02010KT FEW017

Observations et prévisions météorologiques de plus de 4000 aéroports (messages METAR et TAF).

Les stations disponibles sont représentées par des disques jaunes et rouges sur la carte.

Passer la souris dessus pour voir le nom de la station.

Cliquer dessus pour voir les observations et prévisions météorologiques.

Pour changer de carte: cliquez sur les boutons verts avec une croix noire pour zoomer, sur le bouton vert avec un tiret pour effectuer un zoom arrière, ou sur les flèches vertes pour les cartes adjacentes.


METAR-TAF: